Erria Swan — 9HHJ9 — position and weather

sailwx.info

Track history (hours):
 
Tides and Currents Weather Stations Pressure Air Temp Water Temp Dewpoint Dewpoint Depression Visibility Wind Speed Wind Dir Waves Ship Positions

Erria Swan

Last reported at 2014-Jul-30 00:34 UTC. Time now 2014-Jul-31 01:17 UTC.
Position N 38°59' E 025°54'.

Length 130 m; draft 6.8 m.

Type: Ship. MMSI: 256986000.

Date/timePositionNaut miles runAvg speedWind from/ knotsBaromVisibWave heightAir tempDewpointWater temp
2014-Jul-30 00:34N 38°59' E 025°54'3510.7
2014-Jul-29 21:17N 39°32' E 025°41'911.6
2014-Jul-29 20:32N 39°41' E 025°43'1212.1
2014-Jul-29 19:34N 39°52' E 025°45'1210.1
2014-Jul-29 18:25N 39°60' E 025°57'1112.4
2014-Jul-29 17:33N 40°02' E 026°11'1212.0
2014-Jul-29 16:32N 40°09' E 026°23'1411.2
2014-Jul-29 15:20N 40°19' E 026°36'810.5
2014-Jul-29 14:31N 40°25' E 026°43'  
Track history (hours):
 
Tides and Currents Weather Stations Pressure Air Temp Water Temp Dewpoint Dewpoint Depression Visibility Wind Speed Wind Dir Waves Ship Positions

Erria Swan

Last reported at 2014-Jul-30 00:34 UTC. Time now 2014-Jul-31 01:17 UTC.
Position N 38°59' E 025°54'.

Length 130 m; draft 6.8 m.

Type: Ship. MMSI: 256986000.

Date/timePositionNaut miles runAvg speedWind from/ knotsBaromVisibWave heightAir tempDewpointWater temp
2014-Jul-30 00:34N 38°59' E 025°54'3510.7
2014-Jul-29 21:17N 39°32' E 025°41'911.6
2014-Jul-29 20:32N 39°41' E 025°43'1212.1
2014-Jul-29 19:34N 39°52' E 025°45'1210.1
2014-Jul-29 18:25N 39°60' E 025°57'1112.4
2014-Jul-29 17:33N 40°02' E 026°11'1212.0
2014-Jul-29 16:32N 40°09' E 026°23'1411.2
2014-Jul-29 15:20N 40°19' E 026°36'810.5
2014-Jul-29 14:31N 40°25' E 026°43'  

Dump ship's entire track history